Terminal Aerodrome Forecast
Issued by NWS

Home | Current Version | Previous Version | Text Only | Print | Product List | Glossary On
Versions: 1 2 3 4 5 6 7 8 9 10 11 12 13
028
FTUS42 TJSJ 292339
TAFNCM
TAF
TNCM 292339Z 3000/3024 11008KT P6SM FEW020 SCT100
      TEMPO 3007/3011 VRB12G20KT 5SM SHRA SCT020 BKN030
     FM301330 13012KT P6SM FEW020 SCT050=

USA.gov is the U.S. government's official web portal to all federal, state and local government web resources and services.